Time;durP1;ratioP1;P1;durP2;ratioP2;P2;SDS_P1;SDS_P2;PMS_P1;PMS_P2;Temp;Humidity;BMP_temperature;BMP_pressure;BME280_temperature;BME280_humidity;BME280_pressure;Samples;Min_cycle;Max_cycle;Signal;HPM_P1;HPM_P2
2021/09/20 00:02:01;;;;;;;3.72;2.40;;;18.40;63.60;;;;;;5055668;28;20029;-81
2021/09/20 00:04:27;;;;;;;3.58;2.45;;;18.40;63.70;;;;;;5055265;28;20040;-82
2021/09/20 00:06:53;;;;;;;2.42;2.00;;;18.40;63.70;;;;;;5038745;28;20040;-81
2021/09/20 00:09:18;;;;;;;2.85;2.20;;;18.30;63.60;;;;;;5055470;28;20048;-81
2021/09/20 00:11:44;;;;;;;2.92;2.20;;;18.30;63.70;;;;;;5073728;28;20038;-80
2021/09/20 00:14:10;;;;;;;3.47;2.35;;;18.30;63.60;;;;;;5039147;28;20116;-80
2021/09/20 00:16:36;;;;;;;2.50;2.03;;;18.30;63.70;;;;;;5055683;28;20370;-81
2021/09/20 00:19:01;;;;;;;3.33;2.30;;;18.30;63.70;;;;;;5071815;28;20059;-82
2021/09/20 00:21:27;;;;;;;2.92;2.15;;;18.20;63.60;;;;;;5056180;28;20037;-81
2021/09/20 00:23:54;;;;;;;3.58;2.42;;;18.20;63.60;;;;;;5057244;28;20361;-81
2021/09/20 00:26:19;;;;;;;2.90;2.03;;;18.20;63.60;;;;;;5075978;28;20033;-81
2021/09/20 00:28:45;;;;;;;3.83;2.65;;;18.20;63.70;;;;;;5076071;28;20036;-80
2021/09/20 00:31:11;;;;;;;3.35;2.40;;;18.10;63.60;;;;;;5076174;28;20430;-80
2021/09/20 00:33:37;;;;;;;3.20;2.33;;;18.20;63.70;;;;;;5059373;28;20078;-81
2021/09/20 00:36:03;;;;;;;4.25;2.50;;;18.10;63.60;;;;;;5042723;28;20193;-80
2021/09/20 00:38:29;;;;;;;3.75;2.50;;;18.10;63.70;;;;;;5059136;28;20029;-81
2021/09/20 00:40:54;;;;;;;2.88;2.25;;;18.00;63.60;;;;;;5075608;28;20032;-81
2021/09/20 00:43:20;;;;;;;4.22;2.70;;;18.00;63.60;;;;;;5075641;28;20035;-81
2021/09/20 00:45:46;;;;;;;3.97;2.88;;;18.00;63.70;;;;;;5059205;28;20029;-81
2021/09/20 00:48:12;;;;;;;3.60;2.65;;;18.00;63.60;;;;;;5075191;28;20041;-80
2021/09/20 00:50:39;;;;;;;3.22;2.33;;;18.00;63.70;;;;;;5075279;28;20033;-80
2021/09/20 00:53:04;;;;;;;4.13;2.58;;;17.90;63.60;;;;;;5058960;28;20029;-81
2021/09/20 00:55:31;;;;;;;3.58;2.50;;;17.90;63.70;;;;;;5043052;28;20369;-82
2021/09/20 00:57:57;;;;;;;3.60;2.45;;;17.90;63.70;;;;;;5075118;28;20039;-81
2021/09/20 01:00:24;;;;;;;3.78;2.65;;;17.90;63.70;;;;;;5058549;28;20031;-80
2021/09/20 01:02:50;;;;;;;3.67;2.65;;;17.80;63.60;;;;;;5058444;28;20488;-80
2021/09/20 01:05:16;;;;;;;3.88;2.72;;;17.80;64.30;;;;;;5058558;28;20056;-81
2021/09/20 01:07:42;;;;;;;3.92;2.63;;;17.80;63.60;;;;;;5078483;28;20052;-80
2021/09/20 01:10:08;;;;;;;4.28;3.17;;;17.80;63.60;;;;;;5078104;28;20071;-81
2021/09/20 01:12:34;;;;;;;3.85;2.78;;;17.70;63.60;;;;;;5078300;28;20040;-83
2021/09/20 01:15:01;;;;;;;3.72;2.35;;;17.70;63.60;;;;;;5078189;28;20354;-81
2021/09/20 01:17:27;;;;;;;3.40;2.63;;;17.70;63.60;;;;;;5078419;28;20032;-82
2021/09/20 01:19:53;;;;;;;3.25;2.47;;;17.70;63.70;;;;;;5096578;28;20238;-80
2021/09/20 01:22:21;;;;;;;3.92;2.67;;;17.70;63.70;;;;;;5061423;28;20032;-80
2021/09/20 01:24:49;;;;;;;3.60;2.60;;;17.70;63.70;;;;;;5061404;28;20043;-81
2021/09/20 01:27:18;;;;;;;4.13;2.65;;;17.60;63.70;;;;;;5061282;28;20028;-80
2021/09/20 01:29:44;;;;;;;3.42;2.40;;;17.60;63.70;;;;;;5043609;28;20059;-80
2021/09/20 01:32:10;;;;;;;3.42;2.50;;;17.60;63.80;;;;;;5078159;28;20138;-80
2021/09/20 01:34:36;;;;;;;3.53;2.60;;;17.50;63.70;;;;;;5077666;28;20067;-80
2021/09/20 01:37:03;;;;;;;3.35;2.53;;;17.50;63.70;;;;;;5078016;28;20047;-81
2021/09/20 01:39:30;;;;;;;3.38;2.40;;;17.50;63.80;;;;;;5095690;28;20020;-81
2021/09/20 01:41:58;;;;;;;3.35;2.50;;;17.50;63.80;;;;;;5077958;28;20073;-80
2021/09/20 01:44:25;;;;;;;3.72;2.60;;;17.50;63.80;;;;;;5061184;28;20081;-81
2021/09/20 01:46:53;;;;;;;4.35;2.60;;;17.50;63.80;;;;;;5061168;28;20580;-81
2021/09/20 01:49:19;;;;;;;3.00;2.40;;;17.40;63.80;;;;;;5060837;28;20036;-80
2021/09/20 01:51:45;;;;;;;4.25;2.70;;;17.40;63.90;;;;;;5077833;28;20115;-80
2021/09/20 01:54:12;;;;;;;3.13;2.45;;;17.40;63.80;;;;;;5061089;28;20517;-80
2021/09/20 01:56:39;;;;;;;2.83;2.30;;;17.40;63.90;;;;;;5077875;28;20034;-83
2021/09/20 01:59:05;;;;;;;3.88;2.72;;;17.30;63.80;;;;;;5060903;28;20032;-81
2021/09/20 02:01:31;;;;;;;4.30;2.65;;;17.30;63.80;;;;;;5077376;28;20028;-81
2021/09/20 02:03:57;;;;;;;3.58;2.55;;;17.30;63.90;;;;;;5077054;28;20122;-81
2021/09/20 02:06:23;;;;;;;4.07;2.90;;;17.30;63.90;;;;;;5060668;28;20032;-82
2021/09/20 02:08:50;;;;;;;3.15;2.53;;;17.30;63.90;;;;;;5095659;28;20529;-80
2021/09/20 02:11:18;;;;;;;3.92;2.80;;;17.20;63.90;;;;;;5077567;28;20032;-81
2021/09/20 02:13:44;;;;;;;2.90;2.35;;;17.20;63.90;;;;;;5060891;28;20032;-83
2021/09/20 02:16:10;;;;;;;3.25;2.40;;;17.20;63.90;;;;;;5076945;28;20473;-80
2021/09/20 02:18:36;;;;;;;3.38;2.42;;;17.20;63.90;;;;;;5094832;28;20478;-81
2021/09/20 02:21:03;;;;;;;3.25;2.38;;;17.20;64.60;;;;;;5044960;28;20119;-85
2021/09/20 02:23:29;;;;;;;3.90;2.90;;;17.20;64.00;;;;;;5077031;28;20039;-82
2021/09/20 02:25:55;;;;;;;4.05;2.80;;;17.10;63.90;;;;;;5077362;28;20038;-81
2021/09/20 02:28:21;;;;;;;3.85;2.67;;;17.10;64.00;;;;;;5060503;28;20107;-82
2021/09/20 02:30:47;;;;;;;3.40;2.55;;;17.10;64.00;;;;;;5060656;28;20042;-81
2021/09/20 02:33:13;;;;;;;3.65;2.65;;;17.10;64.00;;;;;;5076864;28;20456;-81
2021/09/20 02:35:39;;;;;;;3.85;2.83;;;17.00;64.00;;;;;;5077430;28;20056;-81
2021/09/20 02:38:04;;;;;;;3.92;2.63;;;17.00;64.00;;;;;;5077666;28;20441;-80
2021/09/20 02:40:30;;;;;;;4.32;2.80;;;17.00;64.00;;;;;;5060377;28;20484;-81
2021/09/20 02:42:56;;;;;;;4.38;2.95;;;17.00;64.10;;;;;;5060131;28;20024;-81
2021/09/20 02:45:22;;;;;;;4.13;2.53;;;17.00;64.20;;;;;;5060623;28;20036;-80
2021/09/20 02:47:48;;;;;;;3.35;2.60;;;16.90;64.10;;;;;;5079706;28;20040;-81
2021/09/20 02:50:14;;;;;;;3.72;2.78;;;16.90;64.10;;;;;;5060342;28;20035;-80
2021/09/20 02:52:40;;;;;;;3.20;2.40;;;16.90;64.10;;;;;;5059800;28;20025;-82
2021/09/20 02:55:07;;;;;;;2.92;2.30;;;16.90;64.10;;;;;;5076690;28;20036;-82
2021/09/20 02:57:34;;;;;;;4.25;2.85;;;16.90;64.20;;;;;;5076994;28;20043;-81
2021/09/20 03:00:00;;;;;;;3.03;2.30;;;16.90;64.20;;;;;;5076828;28;20035;-80
2021/09/20 03:02:26;;;;;;;3.08;2.38;;;16.90;64.20;;;;;;5077344;28;20085;-80
2021/09/20 03:04:52;;;;;;;3.65;2.80;;;16.80;64.20;;;;;;5077468;28;20101;-81
2021/09/20 03:07:18;;;;;;;3.92;2.65;;;16.80;64.20;;;;;;5060273;28;20531;-81
2021/09/20 03:09:44;;;;;;;3.22;2.50;;;16.80;64.20;;;;;;5059236;28;20162;-80
2021/09/20 03:12:09;;;;;;;4.18;2.80;;;16.80;64.20;;;;;;5076817;28;20036;-81
2021/09/20 03:14:35;;;;;;;3.83;2.35;;;16.80;64.20;;;;;;5063349;28;20040;-80
2021/09/20 03:17:02;;;;;;;3.80;2.60;;;16.70;64.20;;;;;;5079971;28;20035;-80
2021/09/20 03:19:27;;;;;;;3.58;2.63;;;16.70;64.20;;;;;;5059452;28;20120;-81
2021/09/20 03:21:53;;;;;;;4.18;2.92;;;16.70;64.30;;;;;;5060193;28;20119;-80
2021/09/20 03:24:19;;;;;;;3.75;2.65;;;16.70;64.30;;;;;;5076477;28;20050;-81
2021/09/20 03:26:45;;;;;;;3.58;2.58;;;16.70;64.30;;;;;;5075996;28;20455;-82
2021/09/20 03:29:11;;;;;;;3.35;2.40;;;16.70;64.30;;;;;;5075808;28;20039;-81
2021/09/20 03:31:36;;;;;;;3.92;2.83;;;16.60;64.20;;;;;;5059489;28;20032;-80
2021/09/20 03:34:03;;;;;;;3.88;2.90;;;16.60;64.30;;;;;;5026406;28;20055;-80
2021/09/20 03:36:29;;;;;;;3.30;2.38;;;16.60;64.30;;;;;;5075938;28;20020;-81
2021/09/20 03:38:55;;;;;;;3.20;2.47;;;16.60;64.30;;;;;;5059319;28;20051;-80
2021/09/20 03:41:22;;;;;;;3.55;2.47;;;16.60;64.40;;;;;;5058893;28;20035;-81
2021/09/20 03:43:48;;;;;;;3.88;2.70;;;16.50;64.30;;;;;;5075724;28;20077;-82
2021/09/20 03:46:14;;;;;;;3.85;2.72;;;16.50;64.30;;;;;;5058856;28;20045;-80
2021/09/20 03:48:39;;;;;;;3.85;2.70;;;16.50;64.40;;;;;;5059174;28;20039;-80
2021/09/20 03:51:06;;;;;;;3.88;2.45;;;16.50;64.40;;;;;;5026225;28;20025;-80
2021/09/20 03:53:36;;;;;;;3.75;2.80;;;16.50;64.40;;;;;;5058918;28;20031;-81
2021/09/20 03:56:03;;;;;;;3.45;2.47;;;16.40;64.40;;;;;;5089502;28;20165;-80
2021/09/20 03:58:29;;;;;;;3.22;2.42;;;16.40;64.40;;;;;;5078467;28;20411;-80
2021/09/20 04:00:55;;;;;;;4.22;2.83;;;16.40;64.40;;;;;;5080349;28;20038;-80
2021/09/20 04:03:21;;;;;;;3.60;2.80;;;16.40;64.40;;;;;;5063953;28;20032;-80
2021/09/20 04:05:47;;;;;;;3.83;2.78;;;16.40;64.40;;;;;;5063116;28;20116;-80
2021/09/20 04:08:15;;;;;;;3.63;2.80;;;16.40;64.40;;;;;;5079445;28;20148;-80
2021/09/20 04:10:43;;;;;;;3.25;2.45;;;16.30;64.40;;;;;;5080200;28;20031;-81
2021/09/20 04:13:09;;;;;;;3.47;2.50;;;16.30;64.40;;;;;;5079660;28;20074;-81
2021/09/20 04:15:37;;;;;;;3.70;2.50;;;16.30;64.40;;;;;;5062947;28;20031;-80
2021/09/20 04:18:07;;;;;;;3.85;2.75;;;16.30;64.40;;;;;;5063398;28;20090;-80
2021/09/20 04:20:33;;;;;;;3.63;2.55;;;16.30;64.50;;;;;;5079914;28;20036;-80
2021/09/20 04:22:58;;;;;;;3.85;2.72;;;16.20;64.40;;;;;;5097236;28;20100;-80
2021/09/20 04:25:24;;;;;;;3.53;2.72;;;16.20;64.50;;;;;;5079608;28;20114;-82
2021/09/20 04:27:50;;;;;;;3.88;2.55;;;16.20;64.50;;;;;;5062843;28;20119;-80
2021/09/20 04:30:16;;;;;;;4.53;2.80;;;16.20;64.50;;;;;;5062538;28;20036;-81
2021/09/20 04:32:42;;;;;;;4.22;2.95;;;16.20;64.50;;;;;;5062845;28;20056;-80
2021/09/20 04:35:08;;;;;;;4.75;2.90;;;16.20;64.60;;;;;;5079142;28;20157;-81
2021/09/20 04:37:34;;;;;;;3.65;2.58;;;16.20;64.60;;;;;;5029217;28;20032;-80
2021/09/20 04:40:00;;;;;;;3.83;2.67;;;16.10;64.50;;;;;;5062335;28;20410;-80
2021/09/20 04:42:26;;;;;;;4.80;3.03;;;16.10;64.60;;;;;;5062379;28;20039;-81
2021/09/20 04:44:52;;;;;;;3.95;2.90;;;16.10;64.60;;;;;;5062577;28;20028;-80
2021/09/20 04:47:18;;;;;;;4.07;2.78;;;16.10;64.60;;;;;;5062149;28;20030;-80
2021/09/20 04:49:44;;;;;;;3.90;2.88;;;16.10;64.60;;;;;;5062186;28;20066;-81
2021/09/20 04:52:10;;;;;;;4.10;2.80;;;16.10;64.60;;;;;;5045698;28;20480;-81
2021/09/20 04:54:36;;;;;;;4.30;2.97;;;16.00;64.60;;;;;;5061951;28;20032;-81
2021/09/20 04:57:03;;;;;;;4.03;2.85;;;16.10;64.70;;;;;;5062211;28;20024;-80
2021/09/20 04:59:29;;;;;;;3.67;2.67;;;16.00;64.60;;;;;;5079028;28;20089;-81
2021/09/20 05:01:54;;;;;;;4.13;2.72;;;16.00;64.60;;;;;;5061810;28;20459;-79
2021/09/20 05:04:20;;;;;;;3.42;2.65;;;16.00;64.60;;;;;;5078595;28;20491;-79
2021/09/20 05:06:46;;;;;;;3.63;2.78;;;16.00;64.70;;;;;;5096304;28;20028;-82
2021/09/20 05:09:12;;;;;;;4.22;2.97;;;16.00;64.70;;;;;;5061398;28;20048;-80
2021/09/20 05:11:38;;;;;;;4.57;3.00;;;16.00;64.70;;;;;;5061631;28;20039;-78
2021/09/20 05:14:05;;;;;;;3.83;2.75;;;15.90;64.70;;;;;;5078209;28;20388;-83
2021/09/20 05:16:31;;;;;;;3.95;2.75;;;15.90;64.70;;;;;;5095990;28;20525;-79
2021/09/20 05:18:57;;;;;;;3.92;2.90;;;15.90;64.70;;;;;;5061451;28;20166;-80
2021/09/20 05:21:23;;;;;;;4.22;2.72;;;15.90;64.70;;;;;;5078135;28;20115;-78
2021/09/20 05:23:50;;;;;;;3.42;2.63;;;15.90;64.70;;;;;;5078055;28;20166;-78
2021/09/20 05:26:17;;;;;;;3.95;2.80;;;15.90;65.40;;;;;;5078323;28;20035;-81
2021/09/20 05:28:43;;;;;;;4.22;2.65;;;15.90;64.80;;;;;;5061539;28;20032;-80
2021/09/20 05:31:08;;;;;;;4.47;3.20;;;15.90;64.80;;;;;;5078119;28;20031;-79
2021/09/20 05:33:35;;;;;;;3.88;2.83;;;15.80;64.80;;;;;;5077914;28;20034;-79
2021/09/20 05:36:05;;;;;;;4.35;2.90;;;15.90;64.80;;;;;;5096363;28;20106;-80
2021/09/20 05:38:31;;;;;;;3.83;2.65;;;15.90;64.90;;;;;;5095877;28;20067;-77
2021/09/20 05:40:57;;;;;;;3.58;2.53;;;15.80;64.80;;;;;;5061159;28;20444;-79
2021/09/20 05:43:22;;;;;;;4.00;3.03;;;15.80;64.90;;;;;;5045307;28;20070;-80
2021/09/20 05:45:48;;;;;;;3.55;2.55;;;15.80;64.80;;;;;;5060979;28;20063;-79
2021/09/20 05:48:18;;;;;;;4.30;2.78;;;15.80;64.90;;;;;;5061659;28;20047;-79
2021/09/20 05:50:44;;;;;;;4.53;3.20;;;15.80;64.90;;;;;;5095894;28;20107;-80
2021/09/20 05:53:11;;;;;;;4.22;2.75;;;15.80;64.90;;;;;;5078103;28;20052;-80
2021/09/20 05:55:36;;;;;;;4.38;3.10;;;15.70;64.90;;;;;;5044512;28;20032;-82
2021/09/20 05:58:02;;;;;;;3.97;2.90;;;15.80;65.00;;;;;;5061791;28;20039;-81
2021/09/20 06:00:28;;;;;;;4.25;3.05;;;15.70;65.00;;;;;;5044407;28;20047;-80
2021/09/20 06:02:54;;;;;;;4.90;3.10;;;15.70;64.90;;;;;;5077818;28;20146;-80
2021/09/20 06:05:20;;;;;;;3.85;2.83;;;15.70;64.90;;;;;;5077202;28;20028;-81
2021/09/20 06:07:46;;;;;;;4.63;3.30;;;15.70;65.00;;;;;;5060506;28;20686;-80
2021/09/20 06:10:13;;;;;;;4.63;3.10;;;15.70;65.00;;;;;;5095506;28;20054;-80
2021/09/20 06:12:39;;;;;;;4.15;3.13;;;15.70;65.10;;;;;;5060677;28;20420;-81
2021/09/20 06:15:06;;;;;;;5.10;3.40;;;15.70;65.10;;;;;;5095937;28;20024;-81
2021/09/20 06:17:32;;;;;;;5.18;3.20;;;15.70;65.10;;;;;;5077456;28;20054;-81
2021/09/20 06:19:58;;;;;;;4.85;2.97;;;15.70;65.10;;;;;;5077391;28;20081;-80
2021/09/20 06:22:24;;;;;;;5.30;3.25;;;15.60;65.10;;;;;;5026578;28;20387;-79
2021/09/20 06:24:50;;;;;;;5.35;3.13;;;15.60;65.10;;;;;;5077036;28;20039;-80
2021/09/20 06:27:16;;;;;;;4.63;3.35;;;15.60;65.10;;;;;;5060925;28;20035;-81
2021/09/20 06:29:42;;;;;;;4.95;3.30;;;15.60;65.20;;;;;;5060571;28;20085;-79
2021/09/20 06:32:07;;;;;;;4.50;3.05;;;15.60;65.20;;;;;;5060226;28;20028;-79
2021/09/20 06:34:33;;;;;;;4.85;3.13;;;15.60;65.20;;;;;;5060495;28;20069;-79
2021/09/20 06:36:59;;;;;;;4.47;3.20;;;15.60;65.20;;;;;;5060169;28;20072;-79
2021/09/20 06:39:26;;;;;;;5.15;3.38;;;15.60;65.20;;;;;;5077002;28;20024;-80
2021/09/20 06:41:51;;;;;;;5.75;3.45;;;15.60;65.20;;;;;;5060653;28;20032;-81
2021/09/20 06:44:18;;;;;;;4.82;3.17;;;15.60;65.20;;;;;;5061264;28;20114;-81
2021/09/20 06:46:45;;;;;;;5.22;3.25;;;15.60;65.20;;;;;;5076781;28;20028;-82
2021/09/20 06:49:10;;;;;;;5.78;3.47;;;15.60;65.30;;;;;;5077043;28;20028;-78
2021/09/20 06:51:36;;;;;;;5.68;3.58;;;15.60;65.20;;;;;;5076921;28;20036;-80
2021/09/20 06:54:03;;;;;;;5.10;3.45;;;15.60;65.30;;;;;;5076716;28;20115;-81
2021/09/20 06:56:28;;;;;;;4.78;3.35;;;15.60;65.30;;;;;;5077501;28;20325;-81
2021/09/20 06:58:54;;;;;;;4.72;3.22;;;15.60;65.30;;;;;;5076678;28;20039;-82
2021/09/20 07:01:20;;;;;;;5.30;3.60;;;15.60;65.30;;;;;;5059962;28;20036;-83
2021/09/20 07:03:46;;;;;;;4.53;3.30;;;15.60;65.30;;;;;;5059825;28;20028;-83
2021/09/20 07:06:12;;;;;;;4.75;3.28;;;15.60;65.30;;;;;;5059762;28;20032;-83
2021/09/20 07:08:38;;;;;;;4.47;3.13;;;15.60;65.30;;;;;;5076133;28;20080;-81
2021/09/20 07:11:05;;;;;;;5.20;3.45;;;15.60;65.30;;;;;;5059987;28;20044;-82
2021/09/20 07:13:30;;;;;;;5.30;3.92;;;15.60;65.30;;;;;;5060782;28;20032;-83
2021/09/20 07:15:56;;;;;;;5.07;3.30;;;15.60;65.30;;;;;;5060248;28;20123;-83
2021/09/20 07:18:22;;;;;;;5.10;3.70;;;15.60;65.30;;;;;;5060465;28;20032;-83
2021/09/20 07:20:49;;;;;;;6.03;4.03;;;15.60;65.30;;;;;;5075791;28;20024;-82
2021/09/20 07:23:15;;;;;;;5.57;3.65;;;15.60;65.30;;;;;;5059558;28;20100;-82
2021/09/20 07:25:41;;;;;;;4.90;3.60;;;15.60;65.30;;;;;;5059320;28;20024;-83
2021/09/20 07:28:07;;;;;;;5.00;3.60;;;15.70;65.40;;;;;;5076165;28;20043;-83
2021/09/20 07:30:33;;;;;;;6.15;3.90;;;15.70;65.40;;;;;;5076071;28;20476;-82
2021/09/20 07:32:59;;;;;;;5.13;3.47;;;15.70;65.40;;;;;;5059574;28;20032;-84
2021/09/20 07:35:25;;;;;;;5.90;3.90;;;15.70;65.40;;;;;;5060251;28;20512;-82
2021/09/20 07:37:53;;;;;;;5.15;3.35;;;15.70;65.50;;;;;;5075892;28;20039;-82
2021/09/20 07:40:24;;;;;;;5.00;3.50;;;15.70;65.50;;;;;;5059294;28;20104;-85
2021/09/20 07:42:52;;;;;;;4.82;3.38;;;15.70;65.50;;;;;;5076213;28;20020;-84
2021/09/20 07:45:18;;;;;;;4.75;3.30;;;15.70;65.40;;;;;;5059391;28;20020;-82
2021/09/20 07:47:45;;;;;;;4.90;3.72;;;15.70;65.40;;;;;;5059304;28;20032;-82
2021/09/20 07:50:14;;;;;;;5.38;3.38;;;15.70;66.10;;;;;;5059442;28;20036;-83
2021/09/20 07:52:40;;;;;;;5.82;3.70;;;15.70;65.40;;;;;;5059247;28;20012;-82
2021/09/20 07:55:07;;;;;;;4.93;3.72;;;15.70;65.40;;;;;;5059180;28;20024;-82
2021/09/20 07:57:33;;;;;;;5.50;4.10;;;15.70;65.40;;;;;;5059183;28;20020;-82
2021/09/20 07:59:59;;;;;;;5.80;4.03;;;15.70;65.40;;;;;;5059267;28;20495;-83
2021/09/20 08:02:25;;;;;;;5.28;3.75;;;15.80;65.40;;;;;;5059119;28;20020;-83
2021/09/20 08:04:51;;;;;;;5.60;4.10;;;15.80;65.40;;;;;;5075654;28;20020;-84
2021/09/20 08:07:17;;;;;;;4.60;3.55;;;15.80;65.40;;;;;;5059131;28;20039;-83
2021/09/20 08:09:43;;;;;;;4.90;3.55;;;15.80;65.40;;;;;;5058707;28;20477;-82
2021/09/20 08:12:09;;;;;;;5.60;3.97;;;15.80;65.40;;;;;;5059349;28;20036;-82
2021/09/20 08:14:35;;;;;;;5.63;3.90;;;15.80;65.40;;;;;;5075424;28;20527;-82
2021/09/20 08:17:01;;;;;;;4.70;3.83;;;15.80;65.40;;;;;;5058797;28;20036;-83
2021/09/20 08:19:27;;;;;;;5.13;3.67;;;15.80;65.40;;;;;;5058906;28;20020;-83
2021/09/20 08:21:53;;;;;;;4.68;3.47;;;15.90;65.40;;;;;;5059119;28;20193;-83
2021/09/20 08:24:20;;;;;;;5.85;3.97;;;15.90;65.40;;;;;;5075906;28;20043;-82
2021/09/20 08:26:45;;;;;;;5.72;3.80;;;15.90;65.40;;;;;;5058847;28;20024;-84
2021/09/20 08:29:11;;;;;;;5.55;4.05;;;15.90;65.40;;;;;;5059523;28;20350;-83
2021/09/20 08:31:38;;;;;;;4.63;3.63;;;15.90;65.40;;;;;;5059904;28;20043;-83
2021/09/20 08:34:03;;;;;;;5.30;3.42;;;15.90;65.30;;;;;;5059227;28;20377;-81
2021/09/20 08:36:29;;;;;;;4.85;3.47;;;15.90;65.30;;;;;;5025851;28;20074;-80
2021/09/20 08:38:55;;;;;;;5.03;3.75;;;16.00;65.40;;;;;;5058279;28;20503;-81
2021/09/20 08:41:21;;;;;;;5.35;3.85;;;16.00;65.40;;;;;;5058939;28;20016;-83
2021/09/20 08:43:47;;;;;;;5.28;3.80;;;16.00;65.40;;;;;;5042198;28;20442;-81
2021/09/20 08:46:13;;;;;;;4.60;3.45;;;16.00;65.40;;;;;;5062180;28;20024;-82
2021/09/20 08:48:43;;;;;;;6.25;4.20;;;16.00;65.40;;;;;;5061968;28;20044;-82
2021/09/20 08:51:10;;;;;;;5.18;3.72;;;16.10;65.40;;;;;;5097106;28;20483;-82
2021/09/20 08:53:37;;;;;;;5.88;4.35;;;16.10;65.30;;;;;;5062193;28;20025;-82
2021/09/20 08:56:04;;;;;;;5.15;3.65;;;16.10;65.30;;;;;;5079131;28;20028;-85
2021/09/20 08:58:30;;;;;;;5.20;3.83;;;16.20;65.30;;;;;;5062513;28;20464;-82
2021/09/20 09:00:56;;;;;;;5.40;4.13;;;16.20;65.20;;;;;;5061903;28;20035;-83
2021/09/20 09:03:24;;;;;;;5.68;3.78;;;16.30;65.10;;;;;;5078744;28;20058;-83
2021/09/20 09:05:50;;;;;;;5.30;3.92;;;16.30;65.10;;;;;;5079165;28;20027;-82
2021/09/20 09:08:20;;;;;;;5.47;3.63;;;16.40;65.00;;;;;;5061849;28;20411;-83
2021/09/20 09:11:01;;;;;;;4.55;3.40;;;16.40;65.00;;;;;;5096511;28;20501;-84
2021/09/20 09:13:43;;;;;;;4.93;3.17;;;16.40;64.90;;;;;;5078437;28;20039;-82
2021/09/20 09:16:15;;;;;;;5.15;3.70;;;16.50;64.80;;;;;;5078593;28;20031;-82
2021/09/20 09:19:00;;;;;;;4.30;3.40;;;16.50;64.70;;;;;;5079131;28;20430;-84
2021/09/20 09:21:32;;;;;;;5.18;3.25;;;16.60;64.70;;;;;;5078134;28;20037;-81
2021/09/20 09:24:00;;;;;;;4.57;3.25;;;16.70;64.50;;;;;;5061611;28;20108;-83
2021/09/20 09:26:25;;;;;;;4.95;3.58;;;16.70;64.40;;;;;;5078395;28;20110;-82
2021/09/20 09:28:53;;;;;;;5.13;3.35;;;16.80;64.30;;;;;;5061900;28;20127;-82
2021/09/20 09:31:19;;;;;;;4.50;3.30;;;16.80;64.20;;;;;;5078416;28;20106;-81
2021/09/20 09:33:45;;;;;;;5.47;3.33;;;16.90;64.10;;;;;;5061529;28;20024;-82
2021/09/20 09:36:15;;;;;;;3.97;3.05;;;17.00;64.00;;;;;;5078815;28;20047;-81
2021/09/20 09:38:58;;;;;;;5.00;3.42;;;17.00;63.90;;;;;;5078285;28;20032;-82
2021/09/20 09:41:36;;;;;;;4.40;3.33;;;17.10;63.90;;;;;;5077863;28;20472;-82
2021/09/20 09:44:08;;;;;;;4.18;3.15;;;17.20;63.80;;;;;;5061435;28;20020;-82
2021/09/20 09:46:42;;;;;;;4.97;3.40;;;17.20;63.60;;;;;;5078070;28;20092;-81
2021/09/20 09:49:22;;;;;;;4.32;3.13;;;17.30;63.50;;;;;;5060670;28;20043;-83
2021/09/20 09:52:05;;;;;;;4.88;3.42;;;17.30;63.40;;;;;;5078564;28;20028;-82
2021/09/20 09:54:34;;;;;;;4.15;3.15;;;17.40;63.30;;;;;;5061568;28;20024;-83
2021/09/20 09:57:31;;;;;;;4.13;3.08;;;17.50;63.20;;;;;;5059730;28;20031;-82
2021/09/20 10:00:01;;;;;;;3.60;2.80;;;17.50;63.20;;;;;;5053126;28;20140;-83
2021/09/20 10:02:42;;;;;;;4.18;3.03;;;17.60;63.00;;;;;;5078929;28;20047;-80
2021/09/20 10:05:18;;;;;;;4.03;2.97;;;17.70;62.90;;;;;;5061749;28;20026;-84
2021/09/20 10:07:46;;;;;;;4.43;3.30;;;17.70;62.90;;;;;;5077423;28;20051;-81
2021/09/20 10:10:16;;;;;;;3.47;2.72;;;17.80;62.80;;;;;;5078246;28;20449;-80
2021/09/20 10:12:45;;;;;;;3.80;2.83;;;17.90;62.80;;;;;;5077276;28;20419;-84
2021/09/20 10:15:13;;;;;;;5.03;3.17;;;18.00;62.70;;;;;;5060879;28;20483;-79
2021/09/20 10:17:39;;;;;;;3.72;2.83;;;18.10;62.60;;;;;;5060212;28;20036;-80
2021/09/20 10:20:08;;;;;;;3.22;2.53;;;18.10;62.50;;;;;;5060436;28;20031;-81
2021/09/20 10:22:34;;;;;;;4.85;3.20;;;18.20;62.40;;;;;;5060439;28;20039;-79
2021/09/20 10:25:02;;;;;;;4.78;3.00;;;18.20;62.20;;;;;;5060674;28;20036;-81
2021/09/20 10:27:30;;;;;;;3.80;2.78;;;18.30;62.10;;;;;;5077661;28;20537;-83
2021/09/20 10:30:18;;;;;;;3.95;2.95;;;18.40;62.10;;;;;;5060564;28;20054;-82
2021/09/20 10:32:50;;;;;;;3.70;2.60;;;18.40;62.00;;;;;;5061133;28;20042;-83
2021/09/20 10:35:22;;;;;;;4.15;2.75;;;18.50;61.80;;;;;;5061260;28;20024;-81
2021/09/20 10:37:49;;;;;;;4.00;2.85;;;18.60;61.70;;;;;;5095029;28;20032;-81
2021/09/20 10:40:15;;;;;;;3.47;2.60;;;18.70;61.60;;;;;;5059979;28;20071;-82
2021/09/20 10:42:46;;;;;;;3.90;2.90;;;18.70;61.60;;;;;;5043587;28;20067;-84
2021/09/20 10:45:33;;;;;;;4.32;2.90;;;18.80;61.50;;;;;;5077462;28;20437;-83
2021/09/20 10:48:13;;;;;;;3.72;2.80;;;18.90;61.50;;;;;;5060829;28;20036;-84
2021/09/20 10:51:17;;;;;;;3.22;2.70;;;18.90;61.20;;;;;;5094834;28;20055;-81
2021/09/20 10:53:44;;;;;;;3.28;2.65;;;19.00;61.30;;;;;;5074733;28;20036;-78
2021/09/20 10:56:12;;;;;;;4.47;2.88;;;19.10;61.00;;;;;;5060108;28;20028;-79
2021/09/20 10:58:42;;;;;;;3.85;2.75;;;19.10;60.90;;;;;;5076535;28;20123;-79
2021/09/20 11:01:10;;;;;;;4.53;2.80;;;19.20;60.90;;;;;;5076674;28;20453;-79
2021/09/20 11:03:40;;;;;;;3.25;2.75;;;19.20;60.80;;;;;;5094512;28;20054;-80
2021/09/20 11:06:22;;;;;;;3.38;2.55;;;19.30;60.70;;;;;;5059611;28;20016;-80
2021/09/20 11:09:11;;;;;;;3.83;2.95;;;19.40;60.80;;;;;;5075306;28;20052;-79
2021/09/20 11:11:44;;;;;;;3.88;2.90;;;19.40;60.70;;;;;;5050042;28;20123;-79
2021/09/20 11:14:35;;;;;;;3.95;2.80;;;19.50;60.60;;;;;;5059189;28;20028;-78
2021/09/20 11:17:16;;;;;;;3.95;2.80;;;19.50;60.60;;;;;;5061650;28;20036;-81
2021/09/20 11:19:45;;;;;;;4.15;2.80;;;19.60;60.50;;;;;;5076075;28;20538;-79
2021/09/20 11:22:14;;;;;;;3.50;2.70;;;19.60;60.40;;;;;;5059627;28;20121;-80
2021/09/20 11:24:46;;;;;;;4.15;3.10;;;19.60;60.30;;;;;;5075893;28;20035;-79
2021/09/20 11:27:24;;;;;;;4.03;2.97;;;19.60;60.30;;;;;;5094203;28;20036;-81
2021/09/20 11:29:59;;;;;;;5.05;2.78;;;19.70;60.20;;;;;;5094169;28;20032;-81
2021/09/20 11:32:26;;;;;;;4.05;2.97;;;19.70;60.20;;;;;;5076338;28;20032;-79
2021/09/20 11:34:54;;;;;;;3.88;2.75;;;19.70;60.10;;;;;;5043174;28;20522;-81
2021/09/20 11:37:30;;;;;;;3.67;2.78;;;19.80;60.20;;;;;;5060721;28;20533;-80
2021/09/20 11:40:02;;;;;;;4.03;2.75;;;19.80;60.20;;;;;;5059852;28;20031;-79
2021/09/20 11:42:38;;;;;;;3.83;2.88;;;19.80;60.10;;;;;;5059339;28;20052;-80
2021/09/20 11:45:17;;;;;;;4.30;2.78;;;19.80;60.10;;;;;;5093503;28;20028;-82
2021/09/20 11:47:51;;;;;;;3.70;2.67;;;19.80;60.00;;;;;;5075864;28;20127;-80
2021/09/20 11:50:23;;;;;;;4.05;2.97;;;19.90;60.00;;;;;;5076159;28;20085;-80
2021/09/20 11:53:07;;;;;;;4.20;3.10;;;19.90;60.00;;;;;;5076090;28;20032;-79
2021/09/20 11:55:36;;;;;;;3.25;2.35;;;19.90;59.90;;;;;;5094279;28;20099;-82
2021/09/20 11:58:05;;;;;;;3.97;3.05;;;19.90;59.90;;;;;;5093823;28;20130;-81
2021/09/20 12:00:34;;;;;;;4.05;2.75;;;19.90;59.90;;;;;;5059151;28;20028;-79
2021/09/20 12:03:05;;;;;;;4.53;2.88;;;19.90;59.90;;;;;;5075988;28;20357;-79
2021/09/20 12:05:37;;;;;;;3.33;2.63;;;20.00;59.90;;;;;;5076378;28;20035;-79
2021/09/20 12:08:08;;;;;;;3.63;2.80;;;20.00;59.90;;;;;;5075306;28;20057;-79
2021/09/20 12:10:43;;;;;;;5.22;2.92;;;20.00;59.80;;;;;;5075921;28;20032;-80
2021/09/20 12:13:12;;;;;;;4.10;3.03;;;20.00;59.80;;;;;;5093369;28;20028;-82
2021/09/20 12:15:40;;;;;;;3.70;2.70;;;20.10;59.70;;;;;;5075724;28;20345;-80
2021/09/20 12:18:15;;;;;;;3.88;2.83;;;20.10;59.60;;;;;;5058867;28;20028;-80
2021/09/20 12:20:44;;;;;;;3.63;2.58;;;20.10;59.60;;;;;;5079645;28;20467;-79
2021/09/20 12:23:25;;;;;;;3.47;2.55;;;20.10;59.50;;;;;;5079411;28;20035;-80
2021/09/20 12:25:56;;;;;;;3.75;2.90;;;20.10;59.50;;;;;;5080049;28;20028;-82
2021/09/20 12:28:37;;;;;;;3.10;2.60;;;20.10;59.50;;;;;;5079988;28;20127;-81
2021/09/20 12:31:26;;;;;;;4.65;2.65;;;20.10;59.50;;;;;;5079707;28;20036;-79
2021/09/20 12:34:01;;;;;;;4.00;2.90;;;20.20;59.50;;;;;;5070998;28;20074;-79
2021/09/20 12:36:29;;;;;;;4.15;2.90;;;20.10;59.40;;;;;;5079015;28;20032;-79
2021/09/20 12:39:14;;;;;;;5.00;2.80;;;20.20;59.30;;;;;;5096952;28;20528;-79
2021/09/20 12:41:45;;;;;;;4.60;2.75;;;20.20;59.40;;;;;;5079012;28;20119;-79
2021/09/20 12:44:13;;;;;;;3.75;2.80;;;20.20;59.30;;;;;;5078712;28;20028;-81
2021/09/20 12:46:40;;;;;;;3.70;2.42;;;20.20;59.30;;;;;;5079133;28;20054;-79
2021/09/20 12:49:08;;;;;;;3.72;2.70;;;20.20;59.30;;;;;;5062120;28;20074;-79
2021/09/20 12:51:39;;;;;;;3.45;2.67;;;20.20;59.30;;;;;;5062348;28;20032;-79
2021/09/20 12:54:24;;;;;;;4.10;3.00;;;20.30;59.40;;;;;;5061725;28;20059;-81